createdAt,value
2019-04-26T00:03:24.586Z,2.50
2019-04-26T00:08:27.868Z,2.40
2019-04-26T00:13:45.213Z,1.30
2019-04-26T00:18:48.046Z,4.50
2019-04-26T00:23:50.992Z,2.20
2019-04-26T00:28:54.027Z,2.40
2019-04-26T00:33:56.771Z,4.60
2019-04-26T00:38:59.506Z,1.37
2019-04-26T00:44:03.401Z,1.87
2019-04-26T00:49:11.151Z,5.00
2019-04-26T00:54:16.432Z,1.47
2019-04-26T00:59:20.534Z,1.30
2019-04-26T01:04:23.542Z,4.90
2019-04-26T01:09:26.266Z,1.30
2019-04-26T01:14:28.982Z,10.20
2019-04-26T01:19:33.098Z,2.50
2019-04-26T01:24:39.437Z,9.43
2019-04-26T01:29:45.895Z,1.77
2019-04-26T01:34:52.117Z,2.17
2019-04-26T01:40:02.256Z,1.30
2019-04-26T01:45:26.105Z,2.40
2019-04-26T01:50:32.426Z,3.90
2019-04-26T01:55:35.144Z,3.83
2019-04-26T02:00:57.756Z,3.73
2019-04-26T02:06:00.575Z,1.77
2019-04-26T02:11:03.423Z,1.50
2019-04-26T02:16:06.157Z,1.20
2019-04-26T02:21:23.630Z,1.60
2019-04-26T02:26:37.538Z,3.37
2019-04-26T02:31:44.585Z,3.23
2019-04-26T02:36:57.854Z,1.60
2019-04-26T02:41:58.287Z,1.63
2019-04-26T02:47:43.805Z,2.10
2019-04-26T02:53:24.642Z,2.90
2019-04-26T02:58:35.934Z,1.40
2019-04-26T03:03:39.718Z,1.57
2019-04-26T03:08:43.388Z,4.07
2019-04-26T03:14:13.201Z,1.33
2019-04-26T03:19:39.637Z,7.80
2019-04-26T03:24:59.207Z,3.60
2019-04-26T03:30:22.265Z,2.00
2019-04-26T03:35:57.751Z,1.53
2019-04-26T03:41:39.017Z,1.67
2019-04-26T03:47:00.474Z,1.63
2019-04-26T03:52:42.101Z,1.50
2019-04-26T03:57:53.809Z,1.63
2019-04-26T04:03:30.051Z,3.60
2019-04-26T04:08:48.128Z,1.70
2019-04-26T04:14:06.122Z,2.50
2019-04-26T04:20:08.218Z,3.40
2019-04-26T04:25:18.836Z,2.67
2019-04-26T04:31:02.848Z,3.67
2019-04-26T04:36:16.219Z,3.83
2019-04-26T04:41:36.390Z,3.87
2019-04-26T04:47:22.279Z,5.10
2019-04-26T04:52:34.933Z,5.30
2019-04-26T04:58:11.111Z,5.60
2019-04-26T05:03:43.499Z,7.30
2019-04-26T05:09:11.863Z,8.07
2019-04-26T05:14:59.115Z,9.60
2019-04-26T05:20:37.515Z,9.37
2019-04-26T05:27:01.180Z,8.00
2019-04-26T05:32:23.670Z,10.23
2019-04-26T05:38:18.361Z,10.13
2019-04-26T05:43:58.232Z,8.47
2019-04-26T05:50:05.875Z,7.97
2019-04-26T05:55:47.744Z,9.20
2019-04-26T06:02:01.051Z,10.17
2019-04-26T06:07:48.449Z,10.60
2019-04-26T06:13:08.392Z,10.50
2019-04-26T06:18:38.789Z,13.73
2019-04-26T06:24:25.812Z,11.13
2019-04-26T06:30:00.902Z,13.70
2019-04-26T06:35:14.988Z,15.70
2019-04-26T06:40:42.011Z,14.57
2019-04-26T06:46:27.305Z,14.50
2019-04-26T06:51:40.945Z,15.40
2019-04-26T06:57:26.750Z,15.77
2019-04-26T07:03:21.374Z,13.60
2019-04-26T07:08:57.484Z,12.73
2019-04-26T07:14:35.362Z,12.20
2019-04-26T07:20:19.743Z,11.83
2019-04-26T07:26:18.932Z,10.17
2019-04-26T07:31:51.613Z,10.10
2019-04-26T07:37:30.685Z,10.10
2019-04-26T07:43:30.013Z,7.80
2019-04-26T07:49:19.306Z,7.30
2019-04-26T07:55:22.744Z,10.00
2019-04-26T08:00:44.600Z,10.33
2019-04-26T08:06:05.793Z,10.00
2019-04-26T08:11:19.491Z,10.80
2019-04-26T08:16:45.247Z,12.33
2019-04-26T08:21:51.757Z,23.00
2019-04-26T08:27:13.665Z,15.07
2019-04-26T08:32:24.327Z,11.30
2019-04-26T08:37:56.001Z,14.13
2019-04-26T08:43:31.978Z,15.73
2019-04-26T08:48:58.116Z,18.47
2019-04-26T08:54:07.682Z,14.70
2019-04-26T08:59:21.329Z,11.77
2019-04-26T09:04:34.839Z,10.97
2019-04-26T09:09:42.468Z,13.20
2019-04-26T09:14:52.404Z,12.50
2019-04-26T09:19:58.018Z,13.40
2019-04-26T09:25:17.130Z,13.17
2019-04-26T09:30:51.407Z,11.60
2019-04-26T09:35:54.232Z,12.13
2019-04-26T09:40:57.323Z,9.83
2019-04-26T09:46:19.957Z,11.00
2019-04-26T09:51:23.475Z,8.50
2019-04-26T09:56:26.199Z,10.57
2019-04-26T10:01:29.914Z,12.60
2019-04-26T10:06:32.714Z,8.27
2019-04-26T10:11:43.510Z,6.63
2019-04-26T10:16:57.026Z,8.57
2019-04-26T10:21:59.849Z,4.10
2019-04-26T10:27:03.379Z,6.20
2019-04-26T10:32:07.274Z,6.53
2019-04-26T10:37:09.997Z,7.77
2019-04-26T10:42:12.754Z,7.50
2019-04-26T10:47:15.880Z,4.77
2019-04-26T10:52:28.461Z,8.37
2019-04-26T10:57:35.903Z,10.67
2019-04-26T11:02:38.639Z,9.63
2019-04-26T11:07:41.340Z,5.13
2019-04-26T11:12:44.805Z,7.40
2019-04-26T11:17:49.944Z,6.00
2019-04-26T11:22:52.288Z,8.03
2019-04-26T11:27:55.000Z,4.80
2019-04-26T11:32:57.708Z,4.47
2019-04-26T11:38:00.461Z,4.03
2019-04-26T11:43:03.272Z,4.33
2019-04-26T11:48:05.987Z,4.63
2019-04-26T11:53:10.123Z,3.17
2019-04-26T11:58:13.801Z,8.60
2019-04-26T12:03:16.613Z,3.50
2019-04-26T12:08:26.144Z,3.93
2019-04-26T12:13:28.892Z,8.17
2019-04-26T12:18:31.759Z,4.83
2019-04-26T12:23:34.540Z,9.23
2019-04-26T12:28:40.038Z,12.40
2019-04-26T12:33:45.154Z,5.47
2019-04-26T12:38:48.110Z,5.20
2019-04-26T12:43:54.557Z,5.17
2019-04-26T12:48:55.765Z,6.73
2019-04-26T12:53:58.476Z,10.13
2019-04-26T12:59:01.183Z,5.90
2019-04-26T13:04:05.013Z,6.53
2019-04-26T13:09:17.273Z,6.90
2019-04-26T13:14:28.433Z,7.17
2019-04-26T13:19:31.164Z,6.90
2019-04-26T13:24:35.473Z,6.10
2019-04-26T13:29:38.475Z,10.73
2019-04-26T13:34:41.178Z,9.73
2019-04-26T13:39:43.897Z,14.83
2019-04-26T13:44:58.101Z,14.40
2019-04-26T13:50:06.874Z,12.27
2019-04-26T13:55:09.627Z,9.73
2019-04-26T14:00:19.600Z,12.20
2019-04-26T14:05:22.348Z,12.27
2019-04-26T14:10:25.041Z,11.33
2019-04-26T14:15:29.353Z,14.83
2019-04-26T14:20:32.175Z,16.90
2019-04-26T14:25:49.458Z,12.77
2019-04-26T14:30:52.165Z,14.73
2019-04-26T14:35:54.871Z,23.60
2019-04-26T14:41:04.054Z,14.60
2019-04-26T14:46:02.352Z,12.70
2019-04-26T14:51:08.290Z,13.40
2019-04-26T14:56:09.883Z,15.60
2019-04-26T15:01:20.938Z,17.00
2019-04-26T15:06:27.769Z,17.80
2019-04-26T15:11:32.246Z,21.50
2019-04-26T15:16:35.107Z,21.07
2019-04-26T15:21:37.816Z,22.80
2019-04-26T15:26:41.667Z,13.13
2019-04-26T15:31:44.393Z,20.23
2019-04-26T15:36:47.939Z,17.43
2019-04-26T15:41:59.907Z,24.67
2019-04-26T15:47:14.772Z,20.67
2019-04-26T15:52:17.649Z,18.87
2019-04-26T15:57:24.393Z,20.77
2019-04-26T16:02:26.298Z,21.67
2019-04-26T16:07:29.314Z,21.13
2019-04-26T16:12:32.177Z,18.33
2019-04-26T16:17:36.133Z,20.80
2019-04-26T16:22:40.853Z,20.73
2019-04-26T16:27:43.583Z,20.13
2019-04-26T16:33:00.004Z,23.63
2019-04-26T16:38:22.478Z,24.20
2019-04-26T16:48:34.032Z,24.17
2019-04-26T16:53:58.797Z,27.33
2019-04-26T16:58:45.350Z,26.60
2019-04-26T17:00:32.072Z,25.33
2019-04-26T17:03:48.484Z,30.67
2019-04-26T17:08:58.736Z,28.53
2019-04-26T17:13:57.041Z,29.90
2019-04-26T17:19:00.764Z,33.57
2019-04-26T17:24:16.264Z,37.03
2019-04-26T17:29:18.996Z,32.33
2019-04-26T17:34:22.539Z,38.03
2019-04-26T17:39:26.331Z,36.43
2019-04-26T17:44:31.099Z,36.90
2019-04-26T17:49:38.359Z,35.80
2019-04-26T17:54:46.642Z,42.37
2019-04-26T17:59:49.045Z,39.43
2019-04-26T18:05:00.191Z,44.20
2019-04-26T18:09:56.980Z,45.20
2019-04-26T18:15:00.149Z,46.40
2019-04-26T18:20:29.223Z,44.50
2019-04-26T18:25:32.125Z,48.03
2019-04-26T18:30:40.393Z,56.60
2019-04-26T18:35:45.118Z,52.90
2019-04-26T18:41:00.138Z,57.93
2019-04-26T18:45:58.576Z,47.57
2019-04-26T18:50:59.815Z,56.13
2019-04-26T18:56:03.389Z,56.03
2019-04-26T19:01:10.007Z,54.70
2019-04-26T19:06:27.125Z,50.90
2019-04-26T19:11:17.435Z,57.30
2019-04-26T19:16:28.894Z,70.27
2019-04-26T19:21:39.213Z,62.73
2019-04-26T19:26:44.235Z,58.93
2019-04-26T19:31:46.542Z,62.70
2019-04-26T19:36:56.385Z,61.77
2019-04-26T19:41:58.793Z,66.80
2019-04-26T19:47:28.875Z,65.47
2019-04-26T19:52:47.009Z,67.33
2019-04-26T19:57:56.777Z,62.33
2019-04-26T20:03:01.531Z,77.43
2019-04-26T20:08:05.981Z,65.60
2019-04-26T20:13:14.993Z,71.83
2019-04-26T20:18:13.789Z,59.53
2019-04-26T20:23:19.300Z,68.33
2019-04-26T20:28:22.811Z,71.20
2019-04-26T20:33:26.750Z,64.60
2019-04-26T20:38:35.884Z,63.43
2019-04-26T20:43:36.825Z,64.53
2019-04-26T20:48:42.463Z,65.43
2019-04-26T20:53:44.999Z,76.80
2019-04-26T20:58:47.734Z,73.93
2019-04-26T21:03:51.717Z,70.00
2019-04-26T21:08:59.071Z,59.23
2019-04-26T21:14:01.870Z,60.97
2019-04-26T21:19:04.078Z,61.47
2019-04-26T21:24:06.911Z,66.07
2019-04-26T21:29:27.531Z,64.97
2019-04-26T21:34:34.456Z,72.07
2019-04-26T21:39:44.200Z,71.83
2019-04-26T21:44:51.825Z,59.87
2019-04-26T21:49:52.744Z,63.37
2019-04-26T21:54:56.377Z,70.27
2019-04-26T21:59:59.347Z,66.63
2019-04-26T22:05:03.494Z,62.57
2019-04-26T22:10:14.262Z,64.50
2019-04-26T22:15:37.582Z,67.10
2019-04-26T22:20:52.242Z,74.77
2019-04-26T22:25:54.315Z,63.23
2019-04-26T22:30:59.353Z,59.00
2019-04-26T22:36:04.055Z,59.27
2019-04-26T22:41:06.881Z,62.07
2019-04-26T22:46:28.309Z,64.67
2019-04-26T22:51:28.505Z,69.17
2019-04-26T22:56:32.513Z,66.93
2019-04-26T23:01:39.355Z,63.20
2019-04-26T23:06:42.496Z,70.20
2019-04-26T23:11:47.692Z,61.77
2019-04-26T23:17:14.999Z,77.80
2019-04-26T23:22:17.811Z,66.13
2019-04-26T23:27:21.594Z,73.13
2019-04-26T23:32:25.281Z,63.00
2019-04-26T23:37:28.119Z,59.17
2019-04-26T23:42:30.861Z,66.27
2019-04-26T23:47:37.367Z,69.03
2019-04-26T23:52:38.321Z,65.17
2019-04-26T23:57:41.079Z,64.80
